Time;durP1;ratioP1;P1;durP2;ratioP2;P2;SDS_P1;SDS_P2;PMS_P1;PMS_P2;Temp;Humidity;BMP_temperature;BMP_pressure;BME280_temperature;BME280_humidity;BME280_pressure;Samples;Min_cycle;Max_cycle;Signal;HPM_P1;HPM_P2
2023/08/27 00:00:39;;;;;;;11.50;3.47;;;23.90;92.00;;;;;;5074382;28;20078;-87
2023/08/27 00:03:05;;;;;;;10.25;4.38;;;23.80;91.70;;;;;;5074251;28;20047;-87
2023/08/27 00:05:30;;;;;;;6.18;3.47;;;23.80;90.20;;;;;;5075384;28;20473;-87
2023/08/27 00:07:56;;;;;;;6.13;3.47;;;23.90;90.30;;;;;;5091311;28;20025;-87
2023/08/27 00:10:22;;;;;;;11.57;4.07;;;24.00;89.70;;;;;;5075488;28;20031;-87
2023/08/27 00:12:47;;;;;;;10.43;3.58;;;24.00;90.20;;;;;;5075506;28;20055;-86
2023/08/27 00:15:13;;;;;;;6.90;4.05;;;24.00;90.60;;;;;;5073864;28;20049;-88
2023/08/27 00:17:39;;;;;;;13.02;5.05;;;24.00;90.60;;;;;;5073401;28;20036;-86
2023/08/27 00:20:09;;;;;;;11.02;4.53;;;24.00;90.70;;;;;;5074984;28;20537;-85
2023/08/27 00:22:36;;;;;;;7.47;3.90;;;23.90;91.70;;;;;;5073328;28;20030;-85
2023/08/27 00:25:02;;;;;;;8.98;3.63;;;24.00;90.90;;;;;;5074669;28;20031;-86
2023/08/27 00:27:27;;;;;;;12.02;4.18;;;23.90;90.70;;;;;;5074697;28;20025;-87
2023/08/27 00:29:53;;;;;;;9.95;3.67;;;23.80;91.20;;;;;;5074632;28;20025;-85
2023/08/27 00:32:19;;;;;;;9.70;4.03;;;23.80;91.50;;;;;;5074157;28;20074;-86
2023/08/27 00:34:44;;;;;;;6.10;3.85;;;23.70;92.10;;;;;;5090328;28;20119;-86
2023/08/27 00:37:10;;;;;;;10.73;4.82;;;23.80;90.20;;;;;;5072822;28;20198;-85
2023/08/27 00:39:38;;;;;;;10.50;3.45;;;23.80;91.10;;;;;;5072725;28;20070;-86
2023/08/27 00:42:05;;;;;;;10.60;4.72;;;23.80;91.20;;;;;;5072636;28;20484;-85
2023/08/27 00:44:31;;;;;;;7.68;3.58;;;23.80;90.70;;;;;;5073560;28;20028;-86
2023/08/27 00:46:57;;;;;;;13.20;4.57;;;23.80;91.00;;;;;;5073460;28;20029;-87
2023/08/27 00:49:23;;;;;;;10.88;3.40;;;23.90;90.60;;;;;;5074727;28;20028;-87
2023/08/27 00:51:49;;;;;;;8.63;3.88;;;23.90;90.60;;;;;;5074348;28;20398;-87
2023/08/27 00:54:15;;;;;;;15.05;3.92;;;23.80;90.70;;;;;;5074597;28;20033;-87
2023/08/27 00:56:45;;;;;;;18.92;4.85;;;23.80;90.90;;;;;;5074542;28;20064;-86
2023/08/27 00:59:12;;;;;;;19.10;3.80;;;23.80;90.50;;;;;;5072506;28;20035;-85
2023/08/27 01:01:39;;;;;;;8.60;3.80;;;23.70;90.80;;;;;;5071062;28;20036;-86
2023/08/27 01:04:05;;;;;;;7.95;4.18;;;23.70;91.30;;;;;;5073692;28;20032;-85
2023/08/27 01:06:31;;;;;;;11.40;3.60;;;23.60;91.50;;;;;;5073649;28;20025;-86
2023/08/27 01:09:06;;;;;;;11.82;4.00;;;23.60;91.80;;;;;;5078203;28;20023;-85
2023/08/27 01:11:47;;;;;;;7.47;3.50;;;23.60;92.20;;;;;;5083317;28;20062;-86
2023/08/27 01:14:15;;;;;;;9.63;4.10;;;23.50;92.50;;;;;;5072865;28;20157;-84
2023/08/27 01:16:43;;;;;;;8.48;4.00;;;23.40;93.00;;;;;;5071619;28;20037;-84
2023/08/27 01:19:16;;;;;;;15.85;5.13;;;23.30;93.10;;;;;;5072843;28;20017;-85
2023/08/27 01:21:42;;;;;;;8.50;4.18;;;23.30;93.20;;;;;;5071830;28;20061;-85
2023/08/27 01:24:08;;;;;;;8.80;3.90;;;23.30;93.40;;;;;;5071615;28;20024;-85
2023/08/27 01:26:45;;;;;;;8.93;3.92;;;23.20;93.80;;;;;;5071557;28;20044;-85
2023/08/27 01:29:29;;;;;;;15.65;4.45;;;23.20;94.10;;;;;;5069994;28;20580;-84
2023/08/27 01:32:16;;;;;;;12.93;4.47;;;23.10;94.20;;;;;;5070594;28;20036;-84
2023/08/27 01:34:44;;;;;;;11.57;4.45;;;23.10;94.30;;;;;;5070867;28;20440;-85
2023/08/27 01:37:12;;;;;;;6.70;3.63;;;23.10;95.30;;;;;;5070798;28;20056;-84
2023/08/27 01:39:39;;;;;;;9.80;3.70;;;23.00;95.10;;;;;;5071382;28;20104;-84
2023/08/27 01:42:05;;;;;;;7.13;4.00;;;22.90;95.30;;;;;;5071024;28;20024;-82
2023/08/27 01:44:31;;;;;;;14.07;4.53;;;22.90;95.50;;;;;;5072413;28;20024;-84
2023/08/27 01:46:56;;;;;;;7.95;4.30;;;22.90;95.90;;;;;;5071418;28;20382;-83
2023/08/27 01:49:22;;;;;;;9.20;4.43;;;22.80;96.00;;;;;;5071636;28;20032;-81
2023/08/27 01:51:48;;;;;;;6.97;4.40;;;22.80;96.10;;;;;;5072272;28;20036;-87
2023/08/27 01:54:14;;;;;;;8.75;4.10;;;22.80;96.30;;;;;;5088770;28;20505;-87
2023/08/27 01:56:39;;;;;;;6.50;3.90;;;22.80;96.30;;;;;;5071943;28;20623;-85
2023/08/27 01:59:05;;;;;;;9.82;4.00;;;22.80;96.50;;;;;;5072476;28;20044;-85
2023/08/27 02:01:31;;;;;;;6.13;4.18;;;22.80;96.50;;;;;;5072634;28;20025;-83
2023/08/27 02:03:57;;;;;;;12.90;4.57;;;22.80;96.30;;;;;;5071588;28;20397;-84
2023/08/27 02:06:23;;;;;;;7.78;4.00;;;22.70;96.20;;;;;;5072358;28;20042;-84
2023/08/27 02:08:48;;;;;;;14.98;4.68;;;22.80;96.20;;;;;;5072102;28;20016;-85
2023/08/27 02:11:14;;;;;;;14.82;4.18;;;22.70;96.40;;;;;;5072206;28;20024;-84
2023/08/27 02:13:39;;;;;;;8.90;3.95;;;22.70;96.70;;;;;;5072565;28;20550;-85
2023/08/27 02:16:05;;;;;;;4.53;3.38;;;22.70;96.80;;;;;;5072325;28;20497;-84
2023/08/27 02:18:31;;;;;;;8.40;4.85;;;22.60;97.00;;;;;;5072558;28;20020;-84
2023/08/27 02:20:56;;;;;;;7.90;4.13;;;22.60;97.30;;;;;;5071579;28;20032;-84
2023/08/27 02:23:23;;;;;;;11.88;4.40;;;22.60;97.60;;;;;;5071545;28;20028;-84
2023/08/27 02:25:49;;;;;;;6.97;4.22;;;22.50;98.00;;;;;;5070674;28;20020;-84
2023/08/27 02:28:15;;;;;;;8.90;4.22;;;22.50;98.30;;;;;;5071961;28;20025;-84
2023/08/27 02:30:40;;;;;;;8.23;4.43;;;22.50;98.30;;;;;;5087929;28;20120;-83
2023/08/27 02:33:06;;;;;;;8.85;4.05;;;22.40;98.20;;;;;;5071091;28;20119;-84
2023/08/27 02:35:32;;;;;;;6.60;4.15;;;22.40;97.70;;;;;;5072640;28;20077;-84
2023/08/27 02:37:57;;;;;;;9.55;4.65;;;22.40;97.60;;;;;;5074841;28;20033;-85
2023/08/27 02:40:23;;;;;;;4.78;3.80;;;22.40;97.70;;;;;;5092426;28;20032;-86
2023/08/27 02:42:49;;;;;;;8.48;4.22;;;22.40;97.90;;;;;;5092036;28;20020;-86
2023/08/27 02:45:14;;;;;;;7.80;4.63;;;22.40;97.70;;;;;;5089712;28;20638;-85
2023/08/27 02:47:40;;;;;;;11.63;5.22;;;22.50;97.00;;;;;;5091463;28;20020;-85
2023/08/27 02:50:06;;;;;;;11.00;4.55;;;22.50;97.20;;;;;;5092523;28;20067;-82
2023/08/27 02:52:32;;;;;;;7.15;4.35;;;22.50;97.40;;;;;;5091690;28;20382;-83
2023/08/27 02:54:58;;;;;;;9.00;4.25;;;22.50;97.80;;;;;;5094322;28;20031;-85
2023/08/27 02:57:23;;;;;;;7.72;4.18;;;22.40;98.00;;;;;;5095137;28;20516;-84
2023/08/27 02:59:49;;;;;;;9.80;4.25;;;22.40;97.50;;;;;;5092420;28;20439;-84
2023/08/27 03:02:15;;;;;;;6.18;4.22;;;22.60;96.70;;;;;;5092140;28;20095;-84
2023/08/27 03:04:40;;;;;;;6.75;4.47;;;22.50;95.90;;;;;;5091979;28;20032;-83
2023/08/27 03:07:06;;;;;;;6.82;4.68;;;22.60;95.70;;;;;;5091016;28;20070;-84
2023/08/27 03:09:31;;;;;;;6.65;3.95;;;22.60;95.60;;;;;;5091290;28;20081;-84
2023/08/27 03:11:57;;;;;;;9.70;4.88;;;22.70;95.10;;;;;;5092007;28;20032;-85
2023/08/27 03:14:23;;;;;;;7.68;4.57;;;22.70;94.80;;;;;;5092242;28;20143;-85
2023/08/27 03:16:48;;;;;;;8.15;4.65;;;22.80;94.80;;;;;;5092442;28;20038;-84
2023/08/27 03:19:14;;;;;;;17.35;4.25;;;22.80;95.30;;;;;;5090964;28;20020;-85
2023/08/27 03:21:40;;;;;;;19.30;4.63;;;22.70;95.70;;;;;;5090972;28;20028;-85
2023/08/27 03:24:05;;;;;;;24.60;4.25;;;22.70;95.60;;;;;;5092660;28;20035;-84
2023/08/27 03:26:31;;;;;;;11.48;5.25;;;22.60;95.40;;;;;;5091415;28;20032;-84
2023/08/27 03:28:57;;;;;;;11.30;4.25;;;22.70;95.10;;;;;;5091532;28;20177;-85
2023/08/27 03:31:23;;;;;;;9.55;5.22;;;22.70;94.70;;;;;;5092476;28;20036;-85
2023/08/27 03:33:48;;;;;;;13.52;4.25;;;22.80;94.60;;;;;;5092406;28;20032;-85
2023/08/27 03:36:14;;;;;;;8.40;3.95;;;22.70;94.60;;;;;;5093231;28;20176;-82
2023/08/27 03:38:40;;;;;;;9.68;4.50;;;22.70;94.70;;;;;;5094007;28;20442;-85
2023/08/27 03:41:05;;;;;;;9.18;4.53;;;22.70;95.00;;;;;;5094841;28;20028;-85
2023/08/27 03:43:31;;;;;;;8.32;3.67;;;22.60;95.30;;;;;;5095206;28;20028;-85
2023/08/27 03:45:56;;;;;;;11.77;4.82;;;22.70;94.90;;;;;;5096090;28;20036;-85
2023/08/27 03:48:22;;;;;;;9.68;4.70;;;22.70;94.90;;;;;;5094750;28;20024;-86
2023/08/27 03:50:48;;;;;;;11.10;4.45;;;22.70;94.80;;;;;;5094655;28;20110;-85
2023/08/27 03:53:13;;;;;;;10.13;4.93;;;22.80;94.50;;;;;;5095851;28;20027;-85
2023/08/27 03:55:41;;;;;;;10.50;4.57;;;22.90;94.50;;;;;;5094350;28;20744;-85
2023/08/27 03:58:07;;;;;;;13.93;4.72;;;22.90;94.50;;;;;;5094745;28;20020;-85
2023/08/27 04:00:34;;;;;;;12.90;4.47;;;22.90;94.50;;;;;;5095838;28;20046;-85
2023/08/27 04:03:01;;;;;;;13.70;5.18;;;23.00;94.60;;;;;;5095447;28;20533;-84
2023/08/27 04:05:26;;;;;;;15.45;5.60;;;23.00;94.60;;;;;;5095526;28;20016;-84
2023/08/27 04:07:52;;;;;;;10.15;4.15;;;23.00;94.90;;;;;;5095756;28;20115;-86
2023/08/27 04:10:18;;;;;;;13.00;4.80;;;23.00;94.80;;;;;;5094432;28;20021;-86
2023/08/27 04:12:44;;;;;;;13.88;4.82;;;23.00;94.70;;;;;;5095610;28;20468;-86
2023/08/27 04:15:09;;;;;;;12.27;4.75;;;23.00;94.90;;;;;;5093956;28;20574;-86
2023/08/27 04:17:38;;;;;;;15.23;4.95;;;23.00;95.20;;;;;;5094867;28;20036;-86
2023/08/27 04:20:04;;;;;;;10.07;4.25;;;23.00;95.40;;;;;;5093687;28;20025;-84
2023/08/27 04:22:30;;;;;;;9.32;4.55;;;23.00;95.20;;;;;;5092089;28;20122;-80
2023/08/27 04:24:56;;;;;;;14.95;5.00;;;23.10;95.40;;;;;;5092486;28;20104;-83
2023/08/27 04:27:21;;;;;;;13.52;4.78;;;23.10;95.20;;;;;;5092346;28;20107;-82
2023/08/27 04:29:47;;;;;;;11.10;4.80;;;23.10;94.90;;;;;;5090468;28;20115;-81
2023/08/27 04:32:12;;;;;;;13.02;4.60;;;23.10;94.90;;;;;;5092450;28;20097;-81
2023/08/27 04:34:38;;;;;;;8.15;5.00;;;23.20;94.80;;;;;;5091281;28;20022;-83
2023/08/27 04:37:04;;;;;;;16.20;5.72;;;23.20;94.90;;;;;;5094712;28;20127;-85
2023/08/27 04:39:30;;;;;;;17.60;5.38;;;23.30;94.90;;;;;;5094121;28;20026;-84
2023/08/27 04:41:58;;;;;;;17.35;4.35;;;23.30;94.70;;;;;;5107542;28;20083;-84
2023/08/27 04:44:23;;;;;;;13.18;4.80;;;23.40;94.80;;;;;;5095403;28;20016;-86
2023/08/27 04:46:49;;;;;;;18.10;5.07;;;23.50;95.10;;;;;;5094326;28;20472;-86
2023/08/27 04:49:14;;;;;;;9.00;4.65;;;23.50;95.10;;;;;;5093150;28;20645;-85
2023/08/27 04:51:40;;;;;;;10.65;4.45;;;23.60;95.30;;;;;;5093110;28;20028;-85
2023/08/27 04:54:09;;;;;;;12.05;4.68;;;23.60;95.50;;;;;;5092581;28;20107;-84
2023/08/27 04:56:34;;;;;;;13.05;5.55;;;23.60;96.20;;;;;;5094040;28;20051;-86
2023/08/27 04:59:00;;;;;;;8.95;4.80;;;23.50;96.50;;;;;;5089934;28;20016;-86
2023/08/27 05:01:26;;;;;;;5.93;4.32;;;23.50;96.90;;;;;;5093546;28;20032;-86
2023/08/27 05:03:51;;;;;;;12.30;4.35;;;23.50;97.20;;;;;;5072202;28;20037;-86
2023/08/27 05:06:17;;;;;;;9.88;4.32;;;23.60;97.10;;;;;;5073719;28;20122;-86
2023/08/27 05:08:43;;;;;;;11.80;4.70;;;23.80;97.20;;;;;;5073743;28;20029;-85
2023/08/27 05:11:09;;;;;;;11.77;4.53;;;24.10;97.10;;;;;;5073431;28;20098;-86
2023/08/27 05:13:34;;;;;;;9.90;4.90;;;24.20;97.00;;;;;;5073577;28;20047;-86
2023/08/27 05:16:00;;;;;;;8.73;5.05;;;24.50;96.90;;;;;;5073285;28;20444;-86
2023/08/27 05:18:26;;;;;;;10.13;5.45;;;24.70;96.80;;;;;;5073320;28;20374;-86
2023/08/27 05:20:51;;;;;;;8.88;5.30;;;24.90;96.70;;;;;;5073421;28;20503;-86
2023/08/27 05:23:17;;;;;;;14.63;6.35;;;25.10;96.70;;;;;;5073431;28;20556;-86
2023/08/27 05:25:44;;;;;;;9.50;4.97;;;25.20;96.70;;;;;;5072559;28;20508;-86
2023/08/27 05:28:09;;;;;;;12.27;6.05;;;25.30;95.90;;;;;;5072784;28;20484;-87
2023/08/27 05:30:35;;;;;;;9.07;5.43;;;25.50;95.50;;;;;;5073450;28;20074;-84
2023/08/27 05:33:01;;;;;;;11.55;5.50;;;25.70;95.60;;;;;;5072363;28;20408;-84
2023/08/27 05:35:26;;;;;;;9.68;4.70;;;26.00;95.20;;;;;;5073234;28;20027;-87
2023/08/27 05:37:52;;;;;;;8.25;4.65;;;26.30;94.00;;;;;;5073333;28;20511;-86
2023/08/27 05:40:18;;;;;;;14.75;5.63;;;26.60;92.30;;;;;;5073245;28;20040;-87
2023/08/27 05:42:43;;;;;;;7.78;4.30;;;26.80;91.30;;;;;;5071971;28;20020;-87
2023/08/27 05:45:09;;;;;;;9.95;4.28;;;27.10;90.90;;;;;;5071483;28;20024;-87
2023/08/27 05:47:35;;;;;;;13.00;4.57;;;27.40;90.30;;;;;;5072437;28;20020;-87
2023/08/27 05:50:01;;;;;;;7.57;4.30;;;27.60;90.40;;;;;;5072767;28;20035;-84
2023/08/27 05:52:26;;;;;;;12.30;5.15;;;27.90;90.10;;;;;;5073236;28;20401;-84
2023/08/27 05:54:52;;;;;;;16.83;5.32;;;28.10;89.20;;;;;;5073031;28;20043;-83
2023/08/27 05:57:17;;;;;;;9.70;4.43;;;28.50;85.80;;;;;;5072617;28;20036;-84
2023/08/27 05:59:43;;;;;;;13.48;4.80;;;28.90;84.30;;;;;;5072592;28;20036;-87
2023/08/27 06:02:10;;;;;;;12.25;4.72;;;29.40;81.90;;;;;;5072861;28;20021;-87
2023/08/27 06:04:35;;;;;;;5.88;3.90;;;29.80;79.30;;;;;;5071730;28;20028;-87
2023/08/27 06:07:01;;;;;;;12.48;5.07;;;30.20;76.40;;;;;;5071885;28;20035;-85
2023/08/27 06:09:27;;;;;;;7.93;4.80;;;30.50;75.00;;;;;;5090960;28;20114;-84
2023/08/27 06:11:52;;;;;;;7.05;4.15;;;30.70;73.90;;;;;;5085247;28;20480;-83
2023/08/27 06:14:18;;;;;;;17.88;4.65;;;31.10;72.00;;;;;;5073081;28;20053;-85
2023/08/27 06:16:44;;;;;;;9.10;4.40;;;31.30;70.50;;;;;;5091322;28;20047;-84
2023/08/27 06:19:11;;;;;;;13.63;5.30;;;31.50;69.10;;;;;;5082313;28;20052;-83
2023/08/27 06:21:36;;;;;;;12.57;4.93;;;32.00;67.60;;;;;;5087327;28;20074;-84
2023/08/27 06:24:02;;;;;;;13.20;5.75;;;32.20;66.80;;;;;;5089600;28;20035;-84
2023/08/27 06:26:28;;;;;;;16.48;5.32;;;32.50;64.60;;;;;;5105230;28;20038;-84
2023/08/27 06:28:53;;;;;;;11.07;4.60;;;32.80;62.40;;;;;;5095258;28;20107;-87
2023/08/27 06:31:19;;;;;;;16.00;5.20;;;33.00;62.10;;;;;;5092804;28;20073;-87
2023/08/27 06:33:45;;;;;;;8.85;4.63;;;33.10;61.60;;;;;;5092914;28;20031;-87
2023/08/27 06:36:10;;;;;;;12.15;5.68;;;33.70;59.30;;;;;;5091492;28;20059;-87
2023/08/27 06:38:36;;;;;;;9.00;5.18;;;33.50;57.40;;;;;;5092612;28;20103;-86
2023/08/27 06:41:02;;;;;;;9.27;5.75;;;33.40;58.20;;;;;;5092452;28;20154;-85
2023/08/27 06:43:27;;;;;;;11.68;5.20;;;33.60;58.10;;;;;;5082072;28;20031;-85
2023/08/27 06:45:53;;;;;;;11.65;5.20;;;33.20;59.10;;;;;;5071089;28;20507;-87
2023/08/27 06:48:19;;;;;;;19.75;5.55;;;33.60;58.40;;;;;;5071084;28;20024;-86
2023/08/27 06:50:44;;;;;;;10.73;6.00;;;33.60;58.00;;;;;;5071265;28;20029;-87
2023/08/27 06:53:10;;;;;;;12.65;6.03;;;33.90;57.90;;;;;;5071904;28;20036;-85
2023/08/27 06:55:36;;;;;;;65.15;18.77;;;34.30;55.90;;;;;;5072509;28;20029;-87
2023/08/27 06:58:02;;;;;;;18.15;6.60;;;34.20;56.50;;;;;;5072327;28;20098;-87
2023/08/27 07:00:28;;;;;;;11.95;5.63;;;34.10;56.00;;;;;;5072068;28;20494;-86
2023/08/27 07:02:54;;;;;;;19.48;5.18;;;34.10;56.10;;;;;;5071810;28;20028;-87
2023/08/27 07:05:20;;;;;;;12.00;6.15;;;34.30;56.60;;;;;;5070762;28;20025;-86
2023/08/27 07:07:46;;;;;;;8.68;5.85;;;34.50;55.10;;;;;;5070728;28;20539;-87
2023/08/27 07:10:14;;;;;;;9.15;5.65;;;34.80;54.10;;;;;;5074530;28;20033;-87
2023/08/27 07:12:40;;;;;;;13.35;5.93;;;34.80;54.60;;;;;;5076220;28;20469;-87
2023/08/27 07:15:07;;;;;;;10.80;5.60;;;34.60;54.30;;;;;;5075462;28;20049;-87
2023/08/27 07:17:33;;;;;;;14.48;6.20;;;35.10;55.10;;;;;;5074937;28;20052;-84
2023/08/27 07:20:00;;;;;;;18.63;5.93;;;35.40;53.40;;;;;;5073602;28;20496;-87
2023/08/27 07:22:26;;;;;;;12.65;6.25;;;35.40;52.70;;;;;;5075335;28;20059;-86
2023/08/27 07:24:52;;;;;;;9.85;5.60;;;35.40;53.50;;;;;;5075208;28;20497;-86
2023/08/27 07:27:18;;;;;;;15.93;6.07;;;35.30;55.10;;;;;;5074456;28;20021;-86
2023/08/27 07:29:43;;;;;;;9.52;5.80;;;35.70;53.70;;;;;;5075118;28;20048;-86
2023/08/27 07:32:09;;;;;;;18.67;5.93;;;36.00;52.70;;;;;;5075256;28;20024;-86
2023/08/27 07:34:35;;;;;;;11.57;4.88;;;36.30;53.40;;;;;;5074982;28;20056;-86
2023/08/27 07:37:01;;;;;;;9.63;5.53;;;36.40;52.40;;;;;;5073932;28;20520;-87
2023/08/27 07:39:27;;;;;;;22.65;6.43;;;36.50;50.90;;;;;;5073880;28;20074;-86
2023/08/27 07:41:54;;;;;;;14.48;5.45;;;36.60;50.10;;;;;;5074932;28;20126;-86
2023/08/27 07:44:20;;;;;;;15.25;6.63;;;36.70;49.50;;;;;;5075128;28;20396;-86
2023/08/27 07:46:46;;;;;;;12.13;5.50;;;36.90;49.60;;;;;;5075087;28;20023;-86
2023/08/27 07:49:11;;;;;;;18.35;5.80;;;36.80;49.80;;;;;;5073932;28;20021;-87
2023/08/27 07:51:37;;;;;;;14.30;5.47;;;37.10;50.00;;;;;;5085727;28;20103;-86
2023/08/27 07:54:03;;;;;;;15.80;6.38;;;37.30;49.50;;;;;;5093719;28;20047;-86
2023/08/27 07:56:29;;;;;;;20.48;6.07;;;37.10;48.20;;;;;;5092316;28;20028;-87
2023/08/27 07:58:55;;;;;;;9.05;5.82;;;37.50;49.20;;;;;;5093795;28;20024;-87
2023/08/27 08:01:20;;;;;;;16.35;6.60;;;37.70;47.80;;;;;;5094802;28;20027;-84
2023/08/27 08:03:46;;;;;;;19.40;6.05;;;38.10;48.30;;;;;;5093848;28;20028;-86
2023/08/27 08:06:12;;;;;;;12.18;5.40;;;38.70;47.10;;;;;;5095279;28;20103;-85
2023/08/27 08:08:38;;;;;;;11.43;6.07;;;38.60;47.00;;;;;;5094780;28;20076;-84
2023/08/27 08:11:04;;;;;;;13.32;5.35;;;39.30;46.50;;;;;;5106691;28;20079;-85
2023/08/27 08:13:32;;;;;;;8.38;5.25;;;39.60;45.80;;;;;;5100161;28;20016;-86
2023/08/27 08:15:58;;;;;;;19.33;6.22;;;39.90;44.70;;;;;;5094331;28;20131;-85
2023/08/27 08:18:23;;;;;;;18.30;5.68;;;40.00;43.40;;;;;;5093307;28;20028;-86
2023/08/27 08:20:53;;;;;;;43.63;14.88;;;40.20;43.40;;;;;;5092686;28;20021;-86
2023/08/27 08:23:19;;;;;;;17.85;6.43;;;40.60;43.10;;;;;;5094648;28;20081;-86
2023/08/27 08:25:47;;;;;;;19.33;6.45;;;40.70;42.20;;;;;;5093497;28;20036;-84
2023/08/27 08:28:13;;;;;;;11.48;6.15;;;40.80;42.70;;;;;;5093209;28;20059;-86
2023/08/27 08:30:48;;;;;;;15.57;7.22;;;40.90;42.10;;;;;;5092691;28;20052;-86
2023/08/27 08:33:14;;;;;;;16.40;6.80;;;40.90;42.20;;;;;;5092079;28;20059;-86
2023/08/27 08:35:41;;;;;;;9.45;5.97;;;40.90;41.40;;;;;;5094121;28;20021;-86
2023/08/27 08:38:07;;;;;;;16.42;7.43;;;40.90;41.50;;;;;;5094279;28;20024;-86
2023/08/27 08:40:49;;;;;;;32.90;10.82;;;40.70;40.80;;;;;;5092690;28;20046;-86
2023/08/27 08:43:32;;;;;;;10.73;6.90;;;40.40;42.00;;;;;;5092809;28;20024;-85
2023/08/27 08:46:09;;;;;;;15.68;7.57;;;40.40;42.50;;;;;;5092164;28;20066;-85
2023/08/27 08:48:41;;;;;;;15.38;7.15;;;40.80;41.90;;;;;;5093204;28;20023;-85
2023/08/27 08:51:09;;;;;;;13.98;6.82;;;40.90;41.30;;;;;;5092085;28;20401;-85
2023/08/27 08:53:42;;;;;;;14.15;6.45;;;40.90;41.50;;;;;;5091644;28;20055;-86
2023/08/27 08:56:20;;;;;;;17.90;6.53;;;40.60;40.70;;;;;;5092156;28;20040;-84
2023/08/27 08:58:53;;;;;;;10.32;6.85;;;40.40;41.70;;;;;;5092388;28;20107;-86
2023/08/27 09:01:21;;;;;;;10.45;6.65;;;40.40;42.00;;;;;;5076242;28;20064;-86
2023/08/27 09:03:48;;;;;;;15.68;6.78;;;40.20;41.80;;;;;;5072746;28;20029;-86
2023/08/27 09:06:20;;;;;;;15.40;6.32;;;40.20;42.30;;;;;;5071686;28;20030;-86
2023/08/27 09:08:47;;;;;;;14.32;6.57;;;40.20;43.30;;;;;;5072712;28;20067;-84
2023/08/27 09:11:14;;;;;;;17.30;7.65;;;40.30;42.30;;;;;;5071530;28;20024;-85
2023/08/27 09:13:39;;;;;;;18.25;6.35;;;40.00;42.50;;;;;;5070673;28;20450;-85
2023/08/27 09:16:06;;;;;;;17.92;6.80;;;40.10;42.60;;;;;;5072056;28;20045;-85
2023/08/27 09:18:33;;;;;;;13.15;6.38;;;40.30;41.90;;;;;;5071744;28;20025;-83
2023/08/27 09:20:59;;;;;;;14.52;6.65;;;40.40;43.20;;;;;;5071252;28;20025;-84
2023/08/27 09:23:25;;;;;;;11.38;6.45;;;40.60;41.50;;;;;;5072739;28;20870;-85
2023/08/27 09:25:52;;;;;;;27.17;6.63;;;40.80;42.10;;;;;;5070751;28;20111;-85
2023/08/27 09:28:20;;;;;;;16.92;7.88;;;40.80;41.50;;;;;;5072019;28;20050;-85
2023/08/27 09:30:46;;;;;;;19.58;7.40;;;40.50;40.60;;;;;;5071342;28;20065;-85
2023/08/27 09:33:11;;;;;;;15.20;6.97;;;40.40;40.30;;;;;;5071530;28;20024;-84
2023/08/27 09:35:38;;;;;;;18.23;6.47;;;40.20;41.00;;;;;;5072730;28;20082;-86
2023/08/27 09:38:04;;;;;;;21.25;7.40;;;40.00;41.30;;;;;;5071930;28;20036;-85
2023/08/27 09:40:30;;;;;;;10.43;7.05;;;40.00;40.70;;;;;;5071541;28;20036;-86
2023/08/27 09:43:07;;;;;;;15.43;7.18;;;39.70;40.70;;;;;;5071629;28;20065;-86
2023/08/27 09:45:34;;;;;;;12.48;6.75;;;39.40;41.10;;;;;;5071595;28;20137;-86
2023/08/27 09:48:00;;;;;;;13.45;6.60;;;39.30;41.50;;;;;;5072445;28;20110;-85
2023/08/27 09:50:28;;;;;;;19.15;7.13;;;39.60;42.10;;;;;;5072528;28;20021;-85
2023/08/27 09:53:10;;;;;;;8.30;6.30;;;39.80;42.60;;;;;;5072098;28;20028;-85
2023/08/27 09:55:37;;;;;;;8.88;6.38;;;40.30;42.40;;;;;;5074522;28;20491;-85
2023/08/27 09:58:04;;;;;;;17.70;7.38;;;40.70;40.10;;;;;;5076791;28;20052;-85
2023/08/27 10:00:30;;;;;;;12.85;6.70;;;40.80;40.80;;;;;;5072746;28;20038;-86
2023/08/27 10:02:59;;;;;;;13.57;7.25;;;41.20;39.30;;;;;;5072233;28;20020;-86
2023/08/27 10:05:31;;;;;;;10.63;6.65;;;40.80;39.90;;;;;;5071708;28;20032;-85
2023/08/27 10:08:05;;;;;;;13.25;7.28;;;40.60;40.80;;;;;;5072037;28;20104;-86
2023/08/27 10:10:36;;;;;;;17.15;7.22;;;40.40;41.20;;;;;;5070670;28;20566;-86
2023/08/27 10:13:03;;;;;;;13.10;7.30;;;40.20;41.10;;;;;;5072168;28;20031;-87
2023/08/27 10:15:29;;;;;;;14.75;7.13;;;40.10;40.80;;;;;;5072183;28;20068;-85
2023/08/27 10:17:56;;;;;;;24.90;8.55;;;39.70;40.80;;;;;;5070672;28;20405;-85
2023/08/27 10:20:22;;;;;;;9.30;6.95;;;39.30;41.30;;;;;;5071706;28;20028;-85
2023/08/27 10:22:49;;;;;;;14.65;7.18;;;39.00;42.80;;;;;;5069970;28;20035;-83
2023/08/27 10:25:18;;;;;;;12.55;7.15;;;38.80;42.40;;;;;;5071133;28;20021;-84
2023/08/27 10:27:49;;;;;;;16.45;7.13;;;38.50;42.20;;;;;;5069918;28;20037;-85
2023/08/27 10:30:16;;;;;;;16.02;7.20;;;38.30;41.80;;;;;;5071847;28;20024;-85
2023/08/27 10:32:42;;;;;;;10.90;7.18;;;38.00;41.90;;;;;;5070621;28;20119;-86
2023/08/27 10:35:09;;;;;;;10.00;7.05;;;37.80;43.20;;;;;;5071393;28;20100;-85
2023/08/27 10:37:43;;;;;;;10.82;7.70;;;37.70;44.20;;;;;;5070602;28;20040;-86
2023/08/27 10:40:10;;;;;;;9.18;7.45;;;37.50;43.60;;;;;;5071926;28;20439;-84
2023/08/27 10:42:36;;;;;;;15.20;7.93;;;37.30;44.10;;;;;;5070464;28;20047;-85
2023/08/27 10:45:14;;;;;;;15.63;7.60;;;37.20;43.80;;;;;;5074435;28;20028;-85
2023/08/27 10:47:41;;;;;;;10.27;7.15;;;36.80;43.60;;;;;;5075081;28;20024;-85
2023/08/27 10:50:07;;;;;;;27.23;7.85;;;36.70;43.50;;;;;;5076352;28;20056;-85
2023/08/27 10:52:57;;;;;;;10.10;7.57;;;36.50;44.60;;;;;;5073841;28;20059;-84
2023/08/27 10:55:37;;;;;;;9.77;6.90;;;36.60;43.50;;;;;;5074228;28;20024;-84
2023/08/27 10:58:21;;;;;;;12.05;7.75;;;36.30;42.50;;;;;;5074827;28;20044;-85
2023/08/27 11:01:09;;;;;;;15.38;7.65;;;36.30;44.70;;;;;;5074605;28;20443;-85
2023/08/27 11:04:03;;;;;;;11.68;7.13;;;36.10;45.00;;;;;;5083962;28;20049;-85
2023/08/27 11:06:45;;;;;;;15.02;7.10;;;36.10;43.50;;;;;;5094333;28;20036;-85
2023/08/27 11:09:25;;;;;;;22.15;7.80;;;36.00;43.60;;;;;;5094314;28;20031;-84
2023/08/27 11:12:03;;;;;;;18.10;7.70;;;36.00;44.20;;;;;;5093111;28;20035;-84
2023/08/27 11:14:35;;;;;;;13.93;7.22;;;35.90;43.10;;;;;;5093950;28;20054;-84
2023/08/27 11:17:05;;;;;;;14.77;7.32;;;35.80;44.10;;;;;;5092928;28;20035;-85
2023/08/27 11:19:35;;;;;;;25.10;7.35;;;35.90;43.90;;;;;;5095643;28;20377;-84
2023/08/27 11:22:11;;;;;;;13.25;7.05;;;35.90;43.80;;;;;;5094012;28;20050;-86
2023/08/27 11:24:43;;;;;;;12.15;6.95;;;35.90;42.00;;;;;;5095036;28;20027;-85
2023/08/27 11:27:09;;;;;;;12.88;6.82;;;35.90;42.40;;;;;;5094684;28;20016;-85
2023/08/27 11:29:41;;;;;;;17.80;6.72;;;36.00;42.90;;;;;;5095146;28;20035;-86
2023/08/27 11:32:08;;;;;;;15.95;6.85;;;35.90;44.30;;;;;;5095235;28;20065;-85
2023/08/27 11:34:35;;;;;;;11.52;7.00;;;35.90;44.50;;;;;;5094069;28;20028;-86
2023/08/27 11:37:01;;;;;;;13.57;7.78;;;35.90;44.10;;;;;;5094427;28;20035;-85
2023/08/27 11:39:27;;;;;;;14.85;8.10;;;35.90;44.20;;;;;;5095253;28;20069;-86
2023/08/27 11:41:54;;;;;;;8.68;6.85;;;35.90;43.70;;;;;;5082065;28;20032;-84
2023/08/27 11:44:19;;;;;;;9.55;6.60;;;36.00;44.30;;;;;;5096974;28;20020;-86
2023/08/27 11:46:46;;;;;;;14.00;7.07;;;36.00;42.80;;;;;;5096110;28;20077;-86
2023/08/27 11:49:14;;;;;;;13.82;7.22;;;36.00;41.90;;;;;;5094346;28;20069;-86
2023/08/27 11:51:43;;;;;;;13.75;6.50;;;36.10;40.50;;;;;;5094424;28;20024;-86
2023/08/27 11:54:10;;;;;;;22.52;7.90;;;36.00;40.70;;;;;;5093977;28;20381;-84
2023/08/27 11:56:39;;;;;;;8.27;6.95;;;36.10;41.80;;;;;;5092916;28;20488;-85
2023/08/27 11:59:06;;;;;;;9.57;6.95;;;36.10;42.10;;;;;;5094046;28;20119;-85
2023/08/27 12:01:33;;;;;;;12.65;7.72;;;36.10;43.20;;;;;;5094311;28;20381;-84
2023/08/27 12:03:59;;;;;;;10.32;7.18;;;36.10;42.90;;;;;;5092007;28;20059;-85
2023/08/27 12:06:26;;;;;;;13.82;7.45;;;36.10;40.80;;;;;;5092401;28;20063;-85
2023/08/27 12:08:56;;;;;;;8.93;6.82;;;36.00;40.10;;;;;;5092204;28;20103;-85
2023/08/27 12:11:27;;;;;;;11.20;7.60;;;36.00;41.70;;;;;;5092168;28;20028;-86
2023/08/27 12:14:00;;;;;;;8.48;6.68;;;35.90;42.70;;;;;;5093518;28;20020;-85
2023/08/27 12:16:34;;;;;;;8.55;6.78;;;36.00;42.30;;;;;;5093282;28;20042;-84
2023/08/27 12:19:05;;;;;;;13.68;6.70;;;36.00;41.70;;;;;;5093391;28;20016;-84
2023/08/27 12:21:45;;;;;;;13.75;6.93;;;36.00;42.40;;;;;;5092610;28;20487;-85
2023/08/27 12:24:25;;;;;;;12.45;7.53;;;36.10;43.80;;;;;;5091589;28;20107;-84
2023/08/27 12:26:51;;;;;;;15.20;7.38;;;36.20;40.40;;;;;;5075763;28;20104;-86
2023/08/27 12:29:17;;;;;;;11.45;7.32;;;36.10;40.70;;;;;;5093437;28;20059;-85
2023/08/27 12:31:45;;;;;;;8.40;6.97;;;36.10;40.60;;;;;;5092624;28;20164;-85
2023/08/27 12:34:11;;;;;;;11.77;8.70;;;36.00;41.10;;;;;;5093210;28;20480;-85
2023/08/27 12:36:36;;;;;;;8.98;7.07;;;35.90;40.80;;;;;;5091737;28;20065;-86
2023/08/27 12:39:03;;;;;;;21.58;7.93;;;36.00;40.70;;;;;;5091667;28;20480;-86
2023/08/27 12:41:29;;;;;;;16.50;7.88;;;36.00;41.30;;;;;;5090624;28;20028;-85